Polar Ranger — WDC8652 — position and weather

sailwx.info

Track history (hours):
 
Tides and Currents Weather Stations Pressure Air Temp Water Temp Dewpoint Dewpoint Depression Visibility Wind Speed Wind Dir Waves Ship Positions

Polar Ranger

Owner: Dunlap Towing Co., LaConner, WA. More information available from US FCC via Universal Licensing System and Coast Guard Vessel Documentation Center.

Last reported at 2017-Feb-13 21:15 UTC. Time now 2017-Feb-24 00:04 UTC.
Position N 47°52' W 122°24'.
Warning: this ship's position is 10 days out of date.

Type: Towing. MMSI: 367090860.

Date/timePositionNaut miles runAvg speedWind from/ knotsBaromVisibWave heightAir tempDewpointWater temp
2017-Feb-13 21:15N 47°52' W 122°24'1 1.0
2017-Feb-13 20:32N 47°51' W 122°24'1 0.9
2017-Feb-13 19:26N 47°51' W 122°25'1 1.3
2017-Feb-13 18:33N 47°51' W 122°26'5 4.6
2017-Feb-13 17:33N 47°55' W 122°30'18 7.3
2017-Feb-13 15:09N 48°09' W 122°45'2 3.6
2017-Feb-13 14:28N 48°11' W 122°48'3 2.7
2017-Feb-13 13:29N 48°11' W 122°52'3 3.3
2017-Feb-13 12:33N 48°11' W 122°57'5 5.1
2017-Feb-13 11:33N 48°12' W 123°04'6 6.2
2017-Feb-13 10:33N 48°12' W 123°14'6 5.9
2017-Feb-13 09:32N 48°12' W 123°23'5 4.9
2017-Feb-13 08:33N 48°12' W 123°30'6 6.0
2017-Feb-13 07:33N 48°12' W 123°39'6 5.9
2017-Feb-13 06:33N 48°12' W 123°48'6 5.7
2017-Feb-13 05:33N 48°12' W 123°56'6 5.7
2017-Feb-13 04:33N 48°15' W 124°04'5 5.2
2017-Feb-13 03:33N 48°18' W 124°11'37 1.5
2017-Feb-12 02:29N 48°13' W 125°06'7 7.0
2017-Feb-12 01:32N 48°19' W 125°02'6 6.2
2017-Feb-12 00:32N 48°24' W 124°57'6 5.7
2017-Feb-11 23:30N 48°26' W 124°49'7 7.2
2017-Feb-11 22:33N 48°25' W 124°39'8 7.6
2017-Feb-11 21:33N 48°22' W 124°28'8 7.8
2017-Feb-11 20:33N 48°19' W 124°17'7 6.8
2017-Feb-11 19:32N 48°16' W 124°08'9 8.9
2017-Feb-11 18:33N 48°12' W 123°56'9 9.4
2017-Feb-11 17:33N 48°11' W 123°42'9 9.0
2017-Feb-11 16:33N 48°11' W 123°29'8 7.8
2017-Feb-11 15:33N 48°12' W 123°17'9 8.7
2017-Feb-11 14:33N 48°13' W 123°04'8 8.0
2017-Feb-11 13:33N 48°12' W 122°52'7 6.5
2017-Feb-11 12:33N 48°09' W 122°43'9 4.6
2017-Feb-11 10:31N 48°01' W 122°37'5 4.7
2017-Feb-11 09:34N 47°58' W 122°33'6 6.1
2017-Feb-11 08:33N 47°53' W 122°28'8 8.1
2017-Feb-11 07:33N 47°45' W 122°26'7 7.4
2017-Feb-11 06:33N 47°37' W 122°25'3 2.6
2017-Feb-11 05:33N 47°36' W 122°22'0 0.0
2017-Feb-11 04:33N 47°36' W 122°22'1 0.7
2017-Feb-11 03:33N 47°35' W 122°21'0 0.0
2017-Feb-11 02:33N 47°35' W 122°21'0 0.0
2017-Feb-11 01:33N 47°35' W 122°21'0 0.0
2017-Feb-11 00:33N 47°35' W 122°21'0 0.0
2017-Feb-10 23:33N 47°35' W 122°21'5 5.1
2017-Feb-10 22:33N 47°39' W 122°26'1110.5
2017-Feb-10 21:33N 47°49' W 122°24'10 9.9
2017-Feb-10 20:33N 47°58' W 122°17'3 2.7
2017-Feb-10 19:32N 47°59' W 122°13'0 0.0
2017-Feb-10 18:29N 47°59' W 122°13'0 0.0
2017-Feb-10 17:32N 47°59' W 122°13'  
Track history (hours):
 
Tides and Currents Weather Stations Pressure Air Temp Water Temp Dewpoint Dewpoint Depression Visibility Wind Speed Wind Dir Waves Ship Positions

Polar Ranger

Owner: Dunlap Towing Co., LaConner, WA. More information available from US FCC via Universal Licensing System and Coast Guard Vessel Documentation Center.

Last reported at 2017-Feb-13 21:15 UTC. Time now 2017-Feb-24 00:04 UTC.
Position N 47°52' W 122°24'.
Warning: this ship's position is 10 days out of date.

Type: Towing. MMSI: 367090860.

Date/timePositionNaut miles runAvg speedWind from/ knotsBaromVisibWave heightAir tempDewpointWater temp
2017-Feb-13 21:15N 47°52' W 122°24'1 1.0
2017-Feb-13 20:32N 47°51' W 122°24'1 0.9
2017-Feb-13 19:26N 47°51' W 122°25'1 1.3
2017-Feb-13 18:33N 47°51' W 122°26'5 4.6
2017-Feb-13 17:33N 47°55' W 122°30'18 7.3
2017-Feb-13 15:09N 48°09' W 122°45'2 3.6
2017-Feb-13 14:28N 48°11' W 122°48'3 2.7
2017-Feb-13 13:29N 48°11' W 122°52'3 3.3
2017-Feb-13 12:33N 48°11' W 122°57'5 5.1
2017-Feb-13 11:33N 48°12' W 123°04'6 6.2
2017-Feb-13 10:33N 48°12' W 123°14'6 5.9
2017-Feb-13 09:32N 48°12' W 123°23'5 4.9
2017-Feb-13 08:33N 48°12' W 123°30'6 6.0
2017-Feb-13 07:33N 48°12' W 123°39'6 5.9
2017-Feb-13 06:33N 48°12' W 123°48'6 5.7
2017-Feb-13 05:33N 48°12' W 123°56'6 5.7
2017-Feb-13 04:33N 48°15' W 124°04'5 5.2
2017-Feb-13 03:33N 48°18' W 124°11'37 1.5
2017-Feb-12 02:29N 48°13' W 125°06'7 7.0
2017-Feb-12 01:32N 48°19' W 125°02'6 6.2
2017-Feb-12 00:32N 48°24' W 124°57'6 5.7
2017-Feb-11 23:30N 48°26' W 124°49'7 7.2
2017-Feb-11 22:33N 48°25' W 124°39'8 7.6
2017-Feb-11 21:33N 48°22' W 124°28'8 7.8
2017-Feb-11 20:33N 48°19' W 124°17'7 6.8
2017-Feb-11 19:32N 48°16' W 124°08'9 8.9
2017-Feb-11 18:33N 48°12' W 123°56'9 9.4
2017-Feb-11 17:33N 48°11' W 123°42'9 9.0
2017-Feb-11 16:33N 48°11' W 123°29'8 7.8
2017-Feb-11 15:33N 48°12' W 123°17'9 8.7
2017-Feb-11 14:33N 48°13' W 123°04'8 8.0
2017-Feb-11 13:33N 48°12' W 122°52'7 6.5
2017-Feb-11 12:33N 48°09' W 122°43'9 4.6
2017-Feb-11 10:31N 48°01' W 122°37'5 4.7
2017-Feb-11 09:34N 47°58' W 122°33'6 6.1
2017-Feb-11 08:33N 47°53' W 122°28'8 8.1
2017-Feb-11 07:33N 47°45' W 122°26'7 7.4
2017-Feb-11 06:33N 47°37' W 122°25'3 2.6
2017-Feb-11 05:33N 47°36' W 122°22'0 0.0
2017-Feb-11 04:33N 47°36' W 122°22'1 0.7
2017-Feb-11 03:33N 47°35' W 122°21'0 0.0
2017-Feb-11 02:33N 47°35' W 122°21'0 0.0
2017-Feb-11 01:33N 47°35' W 122°21'0 0.0
2017-Feb-11 00:33N 47°35' W 122°21'0 0.0
2017-Feb-10 23:33N 47°35' W 122°21'5 5.1
2017-Feb-10 22:33N 47°39' W 122°26'1110.5
2017-Feb-10 21:33N 47°49' W 122°24'10 9.9
2017-Feb-10 20:33N 47°58' W 122°17'3 2.7
2017-Feb-10 19:32N 47°59' W 122°13'0 0.0
2017-Feb-10 18:29N 47°59' W 122°13'0 0.0
2017-Feb-10 17:32N 47°59' W 122°13'  

Dump ship's entire track history